createdAt,value
2019-05-23T00:00:27.435Z,22.42
2019-05-23T00:02:57.619Z,28.40
2019-05-23T00:05:32.849Z,26.20
2019-05-23T00:08:06.740Z,21.90
2019-05-23T00:10:45.826Z,20.88
2019-05-23T00:13:32.343Z,23.52
2019-05-23T00:16:01.293Z,23.05
2019-05-23T00:18:30.114Z,26.75
2019-05-23T00:20:59.244Z,26.27
2019-05-23T00:23:28.666Z,23.87
2019-05-23T00:25:59.254Z,24.07
2019-05-23T00:28:28.655Z,22.93
2019-05-23T00:31:01.384Z,22.27
2019-05-23T00:33:32.627Z,23.22
2019-05-23T00:36:02.046Z,20.37
2019-05-23T00:38:32.993Z,22.73
2019-05-23T00:41:02.868Z,20.35
2019-05-23T00:43:32.964Z,21.00
2019-05-23T00:46:02.473Z,25.68
2019-05-23T00:48:32.368Z,22.80
2019-05-23T00:51:05.074Z,19.60
2019-05-23T00:53:34.837Z,19.45
2019-05-23T00:56:04.531Z,19.90
2019-05-23T00:58:33.879Z,22.05
2019-05-23T01:01:02.996Z,19.73
2019-05-23T01:03:32.487Z,22.27
2019-05-23T01:06:01.904Z,24.75
2019-05-23T01:08:31.774Z,21.85
2019-05-23T01:11:01.703Z,21.95
2019-05-23T01:13:30.760Z,21.93
2019-05-23T01:15:59.987Z,17.85
2019-05-23T01:18:29.102Z,18.62
2019-05-23T01:21:30.255Z,20.05
2019-05-23T01:24:05.663Z,18.62
2019-05-23T01:26:34.620Z,19.00
2019-05-23T01:29:04.901Z,21.57
2019-05-23T01:31:37.763Z,20.10
2019-05-23T01:34:09.046Z,18.12
2019-05-23T01:36:38.098Z,17.27
2019-05-23T01:39:12.235Z,18.52
2019-05-23T01:41:41.217Z,18.67
2019-05-23T01:44:11.425Z,17.00
2019-05-23T01:46:41.548Z,19.37
2019-05-23T01:49:12.370Z,19.50
2019-05-23T01:51:41.408Z,16.10
2019-05-23T01:54:11.379Z,16.52
2019-05-23T01:56:41.112Z,15.65
2019-05-23T01:59:10.538Z,15.98
2019-05-23T02:01:39.819Z,16.40
2019-05-23T02:04:08.843Z,15.78
2019-05-23T02:06:38.368Z,14.85
2019-05-23T02:09:09.422Z,15.58
2019-05-23T02:11:39.153Z,16.57
2019-05-23T02:14:08.775Z,15.13
2019-05-23T02:16:37.851Z,16.10
2019-05-23T02:19:07.025Z,15.00
2019-05-23T02:21:36.200Z,21.75
2019-05-23T02:24:07.107Z,17.98
2019-05-23T02:26:37.126Z,15.50
2019-05-23T02:29:06.201Z,17.80
2019-05-23T02:31:35.133Z,16.15
2019-05-23T02:34:05.269Z,16.45
2019-05-23T02:36:34.397Z,19.05
2019-05-23T02:39:39.218Z,15.78
2019-05-23T02:42:24.240Z,15.48
2019-05-23T02:44:53.382Z,16.67
2019-05-23T02:47:41.905Z,17.27
2019-05-23T02:50:17.515Z,18.82
2019-05-23T02:52:50.497Z,15.63
2019-05-23T02:55:24.913Z,17.50
2019-05-23T02:57:55.332Z,17.35
2019-05-23T03:00:53.542Z,15.98
2019-05-23T03:03:19.333Z,16.60
2019-05-23T03:05:50.276Z,14.87
2019-05-23T03:08:19.906Z,16.17
2019-05-23T03:10:54.598Z,16.35
2019-05-23T03:13:26.378Z,16.80
2019-05-23T03:15:57.407Z,15.55
2019-05-23T03:18:34.068Z,19.82
2019-05-23T03:21:01.628Z,18.77
2019-05-23T03:23:32.774Z,14.80
2019-05-23T03:26:39.748Z,15.58
2019-05-23T03:29:10.635Z,16.62
2019-05-23T03:31:59.050Z,15.93
2019-05-23T03:34:31.431Z,16.20
2019-05-23T03:37:00.777Z,16.20
2019-05-23T03:39:29.631Z,16.07
2019-05-23T03:41:59.020Z,15.15
2019-05-23T03:44:28.840Z,13.30
2019-05-23T03:46:58.528Z,15.35
2019-05-23T03:49:28.218Z,13.78
2019-05-23T03:51:57.244Z,17.55
2019-05-23T03:54:27.722Z,15.50
2019-05-23T03:56:57.107Z,15.95
2019-05-23T03:59:27.929Z,16.67
2019-05-23T04:01:57.303Z,17.82
2019-05-23T04:04:27.574Z,15.83
2019-05-23T04:06:57.239Z,16.80
2019-05-23T04:09:26.682Z,16.75
2019-05-23T04:11:55.684Z,13.88
2019-05-23T04:14:24.516Z,14.45
2019-05-23T04:16:53.900Z,13.20
2019-05-23T04:19:23.416Z,14.35
2019-05-23T04:21:52.408Z,14.55
2019-05-23T04:24:21.211Z,15.28
2019-05-23T04:26:50.051Z,12.80
2019-05-23T04:29:19.074Z,14.07
2019-05-23T04:32:05.947Z,11.70
2019-05-23T04:34:19.343Z,13.03
2019-05-23T04:36:48.359Z,12.45
2019-05-23T04:39:17.321Z,14.68
2019-05-23T04:41:46.196Z,14.98
2019-05-23T04:44:17.002Z,15.18
2019-05-23T04:46:46.273Z,11.83
2019-05-23T04:49:15.411Z,14.45
2019-05-23T04:51:44.719Z,17.00
2019-05-23T04:54:13.791Z,13.38
2019-05-23T04:56:43.404Z,12.85
2019-05-23T04:59:12.291Z,12.40
2019-05-23T05:01:41.834Z,13.60
2019-05-23T05:04:10.937Z,12.28
2019-05-23T05:06:39.864Z,13.22
2019-05-23T05:09:11.272Z,11.93
2019-05-23T05:11:40.199Z,11.53
2019-05-23T05:14:09.533Z,10.40
2019-05-23T05:16:38.303Z,10.60
2019-05-23T05:19:10.197Z,10.70
2019-05-23T05:21:39.145Z,12.78
2019-05-23T05:24:08.047Z,11.80
2019-05-23T05:26:36.904Z,12.98
2019-05-23T05:29:05.958Z,11.90
2019-05-23T05:31:34.808Z,9.55
2019-05-23T05:34:03.893Z,13.50
2019-05-23T05:36:33.128Z,10.88
2019-05-23T05:39:01.972Z,12.78
2019-05-23T05:41:31.223Z,10.40
2019-05-23T05:44:00.461Z,10.23
2019-05-23T05:46:30.206Z,11.18
2019-05-23T05:48:59.319Z,13.70
2019-05-23T05:51:28.732Z,9.40
2019-05-23T05:53:58.402Z,8.90
2019-05-23T05:56:27.482Z,11.60
2019-05-23T05:58:56.452Z,10.85
2019-05-23T06:01:34.056Z,9.15
2019-05-23T06:03:56.781Z,11.10
2019-05-23T06:06:30.738Z,8.80
2019-05-23T06:09:01.230Z,12.37
2019-05-23T06:11:30.580Z,9.70
2019-05-23T06:13:59.781Z,9.08
2019-05-23T06:16:28.827Z,9.75
2019-05-23T06:18:58.226Z,8.45
2019-05-23T06:21:28.761Z,7.40
2019-05-23T06:23:58.076Z,6.78
2019-05-23T06:26:26.917Z,7.00
2019-05-23T06:28:55.762Z,7.42
2019-05-23T06:31:25.295Z,7.40
2019-05-23T06:33:54.300Z,6.78
2019-05-23T06:36:23.585Z,7.33
2019-05-23T06:38:53.188Z,7.20
2019-05-23T06:41:23.453Z,6.72
2019-05-23T06:43:52.370Z,7.47
2019-05-23T06:46:21.160Z,7.33
2019-05-23T06:48:50.588Z,7.83
2019-05-23T06:51:19.748Z,7.45
2019-05-23T06:53:48.882Z,7.12
2019-05-23T06:56:17.980Z,6.80
2019-05-23T06:58:46.846Z,8.28
2019-05-23T07:01:15.752Z,10.63
2019-05-23T07:03:44.764Z,8.53
2019-05-23T07:06:16.896Z,7.40
2019-05-23T07:08:46.041Z,7.08
2019-05-23T07:11:17.056Z,7.58
2019-05-23T07:13:46.068Z,7.75
2019-05-23T07:16:15.065Z,8.35
2019-05-23T07:18:44.616Z,9.20
2019-05-23T07:21:14.047Z,9.03
2019-05-23T07:23:43.166Z,8.00
2019-05-23T07:26:13.523Z,8.33
2019-05-23T07:28:42.276Z,8.73
2019-05-23T07:31:11.876Z,7.60
2019-05-23T07:33:59.916Z,6.67
2019-05-23T07:36:11.997Z,9.00
2019-05-23T07:38:40.815Z,8.67
2019-05-23T07:41:09.824Z,6.83
2019-05-23T07:43:39.103Z,7.60
2019-05-23T07:46:07.874Z,8.47
2019-05-23T07:48:36.748Z,8.80
2019-05-23T07:51:05.732Z,9.50
2019-05-23T07:53:52.553Z,9.70
2019-05-23T07:56:22.499Z,8.30
2019-05-23T07:58:51.721Z,9.00
2019-05-23T08:01:23.953Z,8.47
2019-05-23T08:03:53.870Z,6.97
2019-05-23T08:06:22.746Z,9.13
2019-05-23T08:08:52.053Z,9.17
2019-05-23T08:11:21.218Z,9.37
2019-05-23T08:13:50.331Z,9.60
2019-05-23T08:16:19.166Z,10.03
2019-05-23T08:18:47.964Z,8.67
2019-05-23T08:21:17.521Z,8.60
2019-05-23T08:23:46.421Z,9.47
2019-05-23T08:26:17.936Z,10.60
2019-05-23T08:29:12.502Z,7.87
2019-05-23T08:31:18.030Z,9.30
2019-05-23T08:33:46.923Z,9.27
2019-05-23T08:36:16.582Z,8.83
2019-05-23T08:38:45.448Z,10.30
2019-05-23T08:41:14.709Z,9.87
2019-05-23T08:43:43.856Z,11.37
2019-05-23T08:46:12.990Z,10.37
2019-05-23T08:48:42.820Z,11.00
2019-05-23T08:51:11.617Z,9.00
2019-05-23T08:53:40.531Z,8.80
2019-05-23T08:56:18.483Z,9.50
2019-05-23T08:58:40.496Z,9.53
2019-05-23T09:01:10.044Z,8.87
2019-05-23T09:03:39.156Z,9.80
2019-05-23T09:06:08.826Z,7.43
2019-05-23T09:08:38.617Z,9.77
2019-05-23T09:11:08.388Z,8.77
2019-05-23T09:13:37.859Z,7.97
2019-05-23T09:16:06.794Z,9.63
2019-05-23T09:18:36.186Z,7.77
2019-05-23T09:21:05.928Z,8.03
2019-05-23T09:23:34.677Z,7.93
2019-05-23T09:26:03.664Z,7.60
2019-05-23T09:28:32.909Z,8.40
2019-05-23T09:31:01.792Z,8.10
2019-05-23T09:33:30.544Z,6.60
2019-05-23T09:35:59.382Z,6.97
2019-05-23T09:38:28.245Z,6.83
2019-05-23T09:40:57.098Z,6.13
2019-05-23T09:43:26.257Z,7.10
2019-05-23T09:45:55.489Z,5.70
2019-05-23T09:48:25.968Z,5.60
2019-05-23T09:50:54.800Z,4.87
2019-05-23T09:53:23.675Z,5.93
2019-05-23T09:55:55.559Z,5.70
2019-05-23T09:58:23.387Z,5.53
2019-05-23T10:00:52.571Z,5.17
2019-05-23T10:03:24.404Z,5.07
2019-05-23T10:05:54.159Z,4.40
2019-05-23T10:08:24.076Z,5.00
2019-05-23T10:10:54.979Z,7.07
2019-05-23T10:13:38.542Z,6.13
2019-05-23T10:16:04.012Z,5.10
2019-05-23T10:18:33.221Z,6.70
2019-05-23T10:21:02.236Z,6.13
2019-05-23T10:23:31.500Z,4.90
2019-05-23T10:26:00.338Z,5.83
2019-05-23T10:28:31.520Z,5.73
2019-05-23T10:31:00.386Z,5.63
2019-05-23T10:33:29.209Z,5.40
2019-05-23T10:36:00.714Z,5.10
2019-05-23T10:38:29.382Z,4.47
2019-05-23T10:40:59.053Z,5.23
2019-05-23T10:43:27.816Z,6.83
2019-05-23T10:45:56.912Z,5.83
2019-05-23T10:48:27.877Z,4.93
2019-05-23T10:50:56.821Z,5.03
2019-05-23T10:53:26.120Z,4.43
2019-05-23T10:55:54.847Z,5.10
2019-05-23T10:58:24.626Z,4.80
2019-05-23T11:00:53.992Z,6.27
2019-05-23T11:03:23.972Z,7.13
2019-05-23T11:05:52.723Z,4.43
2019-05-23T11:08:27.761Z,4.40
2019-05-23T11:10:52.207Z,5.53
2019-05-23T11:13:21.571Z,4.10
2019-05-23T11:15:50.392Z,5.33
2019-05-23T11:18:19.601Z,6.20
2019-05-23T11:20:48.408Z,4.63
2019-05-23T11:23:22.383Z,5.53
2019-05-23T11:25:51.253Z,5.97
2019-05-23T11:28:20.219Z,6.53
2019-05-23T11:30:52.093Z,5.87
2019-05-23T11:33:21.648Z,6.60
2019-05-23T11:35:50.679Z,6.47
2019-05-23T11:38:20.943Z,6.40
2019-05-23T11:40:50.352Z,5.67
2019-05-23T11:43:19.715Z,5.20
2019-05-23T11:45:55.432Z,6.30
2019-05-23T11:48:24.298Z,5.73
2019-05-23T11:50:53.266Z,5.37
2019-05-23T11:53:22.052Z,6.93
2019-05-23T11:55:54.283Z,4.80
2019-05-23T11:58:26.026Z,4.53
2019-05-23T12:01:35.006Z,3.93
2019-05-23T12:04:10.533Z,4.83
2019-05-23T12:06:55.442Z,4.70
2019-05-23T12:09:16.973Z,4.50
2019-05-23T12:11:48.956Z,4.27
2019-05-23T12:14:17.881Z,4.63
2019-05-23T12:16:47.242Z,5.53
2019-05-23T12:19:16.325Z,4.23
2019-05-23T12:21:45.424Z,4.50
2019-05-23T12:24:14.862Z,3.90
2019-05-23T12:26:46.532Z,3.77
2019-05-23T12:29:15.577Z,3.53
2019-05-23T12:31:48.906Z,5.40
2019-05-23T12:34:15.141Z,4.37
2019-05-23T12:36:44.184Z,6.53
2019-05-23T12:39:13.079Z,4.93
2019-05-23T12:41:42.309Z,3.87
2019-05-23T12:44:11.681Z,3.70
2019-05-23T12:46:40.420Z,5.43
2019-05-23T12:49:30.612Z,3.60
2019-05-23T12:51:59.639Z,4.87
2019-05-23T12:54:29.254Z,3.83
2019-05-23T12:56:58.228Z,4.50
2019-05-23T12:59:27.076Z,3.83
2019-05-23T13:02:00.487Z,4.60
2019-05-23T13:04:29.288Z,6.07
2019-05-23T13:07:00.684Z,3.30
2019-05-23T13:09:29.653Z,5.23
2019-05-23T13:11:59.879Z,4.97
2019-05-23T13:14:32.022Z,4.20
2019-05-23T13:17:01.854Z,3.73
2019-05-23T13:19:30.844Z,3.50
2019-05-23T13:21:59.697Z,3.00
2019-05-23T13:24:29.182Z,3.77
2019-05-23T13:26:58.297Z,3.50
2019-05-23T13:29:27.271Z,7.77
2019-05-23T13:31:59.760Z,5.10
2019-05-23T13:34:28.537Z,4.10
2019-05-23T13:37:00.352Z,4.20
2019-05-23T13:39:29.404Z,6.70
2019-05-23T13:41:58.331Z,3.40
2019-05-23T13:44:35.099Z,3.93
2019-05-23T13:47:03.429Z,3.97
2019-05-23T13:49:35.896Z,2.83
2019-05-23T13:52:07.110Z,3.03
2019-05-23T13:54:38.917Z,4.00
2019-05-23T13:57:10.492Z,4.93
2019-05-23T13:59:39.584Z,3.90
2019-05-23T14:02:09.594Z,7.80
2019-05-23T14:04:41.033Z,14.33
2019-05-23T14:07:11.781Z,7.73
2019-05-23T14:09:43.701Z,3.90
2019-05-23T14:12:21.370Z,4.10
2019-05-23T14:14:46.733Z,5.80
2019-05-23T14:17:37.621Z,5.00
2019-05-23T14:20:07.161Z,4.17
2019-05-23T14:22:39.807Z,3.57
2019-05-23T14:25:09.058Z,3.07
2019-05-23T14:27:52.845Z,2.73
2019-05-23T14:30:40.827Z,3.83
2019-05-23T14:33:20.995Z,2.60
2019-05-23T14:35:51.043Z,2.40
2019-05-23T14:38:30.277Z,2.33
2019-05-23T14:40:51.239Z,2.47
2019-05-23T14:43:24.888Z,2.30
2019-05-23T14:45:58.468Z,2.47
2019-05-23T14:48:42.238Z,2.00
2019-05-23T14:51:30.181Z,1.93
2019-05-23T14:54:04.382Z,2.13
2019-05-23T14:56:35.676Z,1.67
2019-05-23T14:59:04.942Z,1.53
2019-05-23T15:01:36.150Z,2.13
2019-05-23T15:04:06.008Z,2.50
2019-05-23T15:06:35.699Z,2.73
2019-05-23T15:09:06.842Z,2.60
2019-05-23T15:11:36.221Z,3.47
2019-05-23T15:14:05.452Z,2.27
2019-05-23T15:16:34.635Z,2.47
2019-05-23T15:19:05.041Z,1.87
2019-05-23T15:21:33.847Z,1.60
2019-05-23T15:24:03.053Z,4.50
2019-05-23T15:26:32.570Z,1.77
2019-05-23T15:29:01.494Z,2.20
2019-05-23T15:31:30.471Z,2.50
2019-05-23T15:33:59.800Z,1.93
2019-05-23T15:36:28.686Z,2.50
2019-05-23T15:39:08.979Z,2.30
2019-05-23T15:41:28.480Z,2.23
2019-05-23T15:43:57.332Z,2.50
2019-05-23T15:46:26.364Z,2.83
2019-05-23T15:48:55.242Z,3.30
2019-05-23T15:51:30.051Z,2.83
2019-05-23T15:54:21.993Z,4.20
2019-05-23T15:56:55.773Z,2.33
2019-05-23T15:59:29.312Z,3.17
2019-05-23T16:02:05.346Z,3.10
2019-05-23T16:04:34.176Z,1.90
2019-05-23T16:07:03.920Z,2.60
2019-05-23T16:09:32.997Z,2.00
2019-05-23T16:12:02.005Z,2.00
2019-05-23T16:14:31.491Z,2.30
2019-05-23T16:17:01.976Z,2.80
2019-05-23T16:19:31.370Z,2.00
2019-05-23T16:22:00.668Z,2.57
2019-05-23T16:24:30.777Z,2.00
2019-05-23T16:27:00.147Z,4.23
2019-05-23T16:29:29.984Z,2.33
2019-05-23T16:31:59.104Z,2.27
2019-05-23T16:34:28.291Z,2.20
2019-05-23T16:36:57.139Z,2.40
2019-05-23T16:39:26.801Z,3.00
2019-05-23T16:41:55.946Z,3.40
2019-05-23T16:44:25.180Z,2.60
2019-05-23T16:46:54.833Z,2.17
2019-05-23T16:49:23.717Z,2.83
2019-05-23T16:51:55.062Z,2.60
2019-05-23T16:54:30.788Z,2.30
2019-05-23T16:57:15.615Z,2.23
2019-05-23T16:59:52.767Z,3.37
2019-05-23T17:02:31.220Z,4.10
2019-05-23T17:05:10.519Z,2.80
2019-05-23T17:07:48.051Z,2.83
2019-05-23T17:10:26.338Z,3.70
2019-05-23T17:13:03.268Z,3.03
2019-05-23T17:15:57.687Z,2.87
2019-05-23T17:18:45.663Z,2.90
2019-05-23T17:21:21.534Z,2.20
2019-05-23T17:24:05.155Z,3.23
2019-05-23T17:26:40.953Z,1.90
2019-05-23T17:29:17.839Z,4.00
2019-05-23T17:31:51.540Z,2.60
2019-05-23T17:34:20.704Z,9.73
2019-05-23T17:36:55.805Z,2.40
2019-05-23T17:39:25.675Z,2.30
2019-05-23T17:41:54.413Z,2.57
2019-05-23T17:44:25.368Z,2.03
2019-05-23T17:46:54.447Z,2.50
2019-05-23T17:49:23.217Z,1.90
2019-05-23T17:51:52.636Z,2.30
2019-05-23T17:54:22.025Z,1.80
2019-05-23T17:56:50.984Z,1.90
2019-05-23T17:59:20.089Z,1.47
2019-05-23T18:01:49.979Z,2.23
2019-05-23T18:04:19.591Z,2.57
2019-05-23T18:06:49.224Z,2.10
2019-05-23T18:09:19.166Z,2.00
2019-05-23T18:11:48.892Z,3.00
2019-05-23T18:14:18.091Z,1.40
2019-05-23T18:16:49.579Z,1.87
2019-05-23T18:19:18.704Z,3.13
2019-05-23T18:21:48.851Z,1.53
2019-05-23T18:24:17.793Z,1.57
2019-05-23T18:26:46.782Z,1.50
2019-05-23T18:29:16.980Z,1.60
2019-05-23T18:31:47.785Z,1.23
2019-05-23T18:34:17.282Z,1.80
2019-05-23T18:36:46.320Z,1.43
2019-05-23T18:39:17.005Z,1.47
2019-05-23T18:41:46.307Z,2.07
2019-05-23T18:44:15.271Z,1.80
2019-05-23T18:46:46.962Z,1.63
2019-05-23T18:49:15.745Z,2.00
2019-05-23T18:51:44.680Z,2.50
2019-05-23T18:54:13.671Z,1.77
2019-05-23T18:56:42.577Z,1.85
2019-05-23T18:59:11.607Z,2.50
2019-05-23T19:01:40.496Z,1.77
2019-05-23T19:04:09.734Z,1.80
2019-05-23T19:06:38.647Z,3.80
2019-05-23T19:09:11.054Z,1.85
2019-05-23T19:11:40.944Z,3.27
2019-05-23T19:14:10.132Z,2.37
2019-05-23T19:16:39.653Z,1.72
2019-05-23T19:19:08.743Z,2.10
2019-05-23T19:21:38.978Z,2.25
2019-05-23T19:24:08.075Z,1.65
2019-05-23T19:26:36.971Z,2.30
2019-05-23T19:29:06.813Z,2.70
2019-05-23T19:31:36.321Z,2.45
2019-05-23T19:34:05.641Z,2.22
2019-05-23T19:36:34.540Z,3.25
2019-05-23T19:39:05.670Z,2.85
2019-05-23T19:41:37.836Z,2.65
2019-05-23T19:44:05.931Z,2.45
2019-05-23T19:46:35.394Z,2.65
2019-05-23T19:49:05.907Z,2.17
2019-05-23T19:51:34.924Z,2.70
2019-05-23T19:54:04.396Z,3.98
2019-05-23T19:56:33.640Z,3.00
2019-05-23T19:59:02.946Z,2.75
2019-05-23T20:01:38.691Z,3.00
2019-05-23T20:04:07.700Z,4.45
2019-05-23T20:06:36.576Z,3.87
2019-05-23T20:09:09.637Z,4.35
2019-05-23T20:11:53.262Z,3.00
2019-05-23T20:14:10.299Z,3.22
2019-05-23T20:16:39.331Z,3.00
2019-05-23T20:19:08.527Z,3.50
2019-05-23T20:21:37.460Z,4.80
2019-05-23T20:24:06.567Z,4.05
2019-05-23T20:26:35.330Z,3.77
2019-05-23T20:29:04.491Z,6.47
2019-05-23T20:31:33.471Z,3.70
2019-05-23T20:34:02.319Z,3.33
2019-05-23T20:36:31.211Z,4.20
2019-05-23T20:39:00.039Z,3.17
2019-05-23T20:41:29.413Z,4.97
2019-05-23T20:43:58.263Z,5.15
2019-05-23T20:46:27.292Z,4.10
2019-05-23T20:48:56.084Z,4.33
2019-05-23T20:51:24.908Z,4.90
2019-05-23T20:53:53.771Z,3.83
2019-05-23T20:56:22.811Z,4.03
2019-05-23T20:58:51.568Z,5.00
2019-05-23T21:01:25.523Z,6.97
2019-05-23T21:03:55.296Z,3.50
2019-05-23T21:06:24.422Z,5.35
2019-05-23T21:08:53.217Z,4.28
2019-05-23T21:11:21.982Z,6.33
2019-05-23T21:13:50.990Z,5.30
2019-05-23T21:16:20.175Z,5.45
2019-05-23T21:18:50.136Z,4.33
2019-05-23T21:21:19.372Z,4.37
2019-05-23T21:23:48.262Z,5.47
2019-05-23T21:26:17.625Z,4.15
2019-05-23T21:28:46.647Z,4.80
2019-05-23T21:31:18.826Z,3.17
2019-05-23T21:33:48.258Z,3.70
2019-05-23T21:36:17.184Z,3.27
2019-05-23T21:38:46.430Z,3.90
2019-05-23T21:41:15.702Z,3.92
2019-05-23T21:43:45.535Z,3.20
2019-05-23T21:46:14.836Z,4.12
2019-05-23T21:48:43.641Z,4.10
2019-05-23T21:51:12.756Z,3.62
2019-05-23T21:53:41.771Z,3.42
2019-05-23T21:56:10.665Z,9.98
2019-05-23T21:58:39.512Z,4.00
2019-05-23T22:01:37.336Z,3.50
2019-05-23T22:04:24.496Z,3.55
2019-05-23T22:06:55.921Z,3.30
2019-05-23T22:09:24.957Z,3.62
2019-05-23T22:11:54.287Z,3.20
2019-05-23T22:14:23.110Z,3.77
2019-05-23T22:16:52.729Z,5.10
2019-05-23T22:19:23.174Z,3.45
2019-05-23T22:21:52.019Z,4.10
2019-05-23T22:24:21.037Z,4.00
2019-05-23T22:26:50.100Z,3.70
2019-05-23T22:29:18.988Z,3.65
2019-05-23T22:31:48.056Z,4.20
2019-05-23T22:34:31.232Z,3.70
2019-05-23T22:37:00.544Z,4.05
2019-05-23T22:39:29.560Z,4.42
2019-05-23T22:41:58.397Z,3.92
2019-05-23T22:44:27.425Z,4.00
2019-05-23T22:46:56.472Z,3.98
2019-05-23T22:49:25.308Z,4.40
2019-05-23T22:51:54.080Z,3.95
2019-05-23T22:54:23.154Z,3.55
2019-05-23T22:56:51.913Z,4.08
2019-05-23T22:59:20.998Z,3.20
2019-05-23T23:01:49.872Z,3.72
2019-05-23T23:04:18.984Z,4.03
2019-05-23T23:06:48.053Z,4.60
2019-05-23T23:09:17.137Z,4.78
2019-05-23T23:11:45.995Z,4.05
2019-05-23T23:14:15.091Z,4.08
2019-05-23T23:16:45.211Z,4.67
2019-05-23T23:19:14.094Z,4.47
2019-05-23T23:21:42.859Z,6.45
2019-05-23T23:24:11.605Z,3.45
2019-05-23T23:26:40.344Z,3.72
2019-05-23T23:29:09.274Z,4.58
2019-05-23T23:31:38.028Z,3.50
2019-05-23T23:34:06.827Z,4.53
2019-05-23T23:36:35.824Z,3.30
2019-05-23T23:39:06.503Z,4.37
2019-05-23T23:41:35.239Z,4.47
2019-05-23T23:44:05.164Z,5.60
2019-05-23T23:46:51.747Z,4.58
2019-05-23T23:49:37.993Z,4.90
2019-05-23T23:52:24.424Z,3.92
2019-05-23T23:55:11.152Z,3.60
2019-05-23T23:57:57.876Z,4.92
